sensor_id;sensor_type;location;lat;lon;timestamp;P1;durP1;ratioP1;P2;durP2;ratioP2
44169;SDS011;29836;52.286;9.576;2024-01-07T00:00:00;14.10;;;7.00;;
44169;SDS011;29836;52.286;9.576;2024-01-07T00:02:26;10.30;;;5.75;;
44169;SDS011;29836;52.286;9.576;2024-01-07T00:04:52;15.70;;;7.78;;
44169;SDS011;29836;52.286;9.576;2024-01-07T00:07:17;13.95;;;6.30;;
44169;SDS011;29836;52.286;9.576;2024-01-07T00:09:43;16.35;;;7.32;;
44169;SDS011;29836;52.286;9.576;2024-01-07T00:12:08;12.30;;;6.25;;
44169;SDS011;29836;52.286;9.576;2024-01-07T00:14:34;13.55;;;6.10;;
44169;SDS011;29836;52.286;9.576;2024-01-07T00:16:59;13.60;;;6.07;;
44169;SDS011;29836;52.286;9.576;2024-01-07T00:19:25;14.75;;;5.65;;
44169;SDS011;29836;52.286;9.576;2024-01-07T00:21:50;13.32;;;6.22;;
44169;SDS011;29836;52.286;9.576;2024-01-07T00:24:16;13.50;;;6.90;;
44169;SDS011;29836;52.286;9.576;2024-01-07T00:26:41;11.32;;;5.20;;
44169;SDS011;29836;52.286;9.576;2024-01-07T00:29:07;17.77;;;6.40;;
44169;SDS011;29836;52.286;9.576;2024-01-07T00:31:32;17.58;;;7.85;;
44169;SDS011;29836;52.286;9.576;2024-01-07T00:33:58;12.52;;;6.28;;
44169;SDS011;29836;52.286;9.576;2024-01-07T00:36:24;15.18;;;7.40;;
44169;SDS011;29836;52.286;9.576;2024-01-07T00:38:49;14.93;;;6.78;;
44169;SDS011;29836;52.286;9.576;2024-01-07T00:41:15;12.13;;;6.00;;
44169;SDS011;29836;52.286;9.576;2024-01-07T00:43:40;12.40;;;6.07;;
44169;SDS011;29836;52.286;9.576;2024-01-07T00:46:06;13.85;;;6.13;;
44169;SDS011;29836;52.286;9.576;2024-01-07T00:48:32;16.83;;;6.97;;
44169;SDS011;29836;52.286;9.576;2024-01-07T00:50:57;16.55;;;6.72;;
44169;SDS011;29836;52.286;9.576;2024-01-07T00:53:23;11.52;;;5.05;;
44169;SDS011;29836;52.286;9.576;2024-01-07T00:55:48;16.35;;;7.35;;
44169;SDS011;29836;52.286;9.576;2024-01-07T00:58:14;17.05;;;7.07;;
44169;SDS011;29836;52.286;9.576;2024-01-07T01:00:39;12.88;;;6.68;;
44169;SDS011;29836;52.286;9.576;2024-01-07T01:03:05;14.70;;;6.32;;
44169;SDS011;29836;52.286;9.576;2024-01-07T01:05:30;14.52;;;5.88;;
44169;SDS011;29836;52.286;9.576;2024-01-07T01:07:56;16.98;;;6.05;;
44169;SDS011;29836;52.286;9.576;2024-01-07T01:10:21;12.63;;;5.47;;
44169;SDS011;29836;52.286;9.576;2024-01-07T01:12:47;12.55;;;6.63;;
44169;SDS011;29836;52.286;9.576;2024-01-07T01:15:13;11.32;;;5.63;;
44169;SDS011;29836;52.286;9.576;2024-01-07T01:17:41;17.98;;;7.63;;
44169;SDS011;29836;52.286;9.576;2024-01-07T01:20:07;11.27;;;6.03;;
44169;SDS011;29836;52.286;9.576;2024-01-07T01:22:33;13.35;;;6.13;;
44169;SDS011;29836;52.286;9.576;2024-01-07T01:24:59;17.75;;;7.38;;
44169;SDS011;29836;52.286;9.576;2024-01-07T01:27:24;13.93;;;6.00;;
44169;SDS011;29836;52.286;9.576;2024-01-07T01:29:50;11.00;;;5.72;;
44169;SDS011;29836;52.286;9.576;2024-01-07T01:32:16;9.98;;;5.10;;
44169;SDS011;29836;52.286;9.576;2024-01-07T01:34:41;13.38;;;5.60;;
44169;SDS011;29836;52.286;9.576;2024-01-07T01:37:08;17.48;;;6.78;;
44169;SDS011;29836;52.286;9.576;2024-01-07T01:39:34;14.63;;;6.75;;
44169;SDS011;29836;52.286;9.576;2024-01-07T01:41:59;17.98;;;6.25;;
44169;SDS011;29836;52.286;9.576;2024-01-07T01:44:25;11.55;;;6.13;;
44169;SDS011;29836;52.286;9.576;2024-01-07T01:46:52;20.27;;;5.38;;
44169;SDS011;29836;52.286;9.576;2024-01-07T01:49:19;24.10;;;7.38;;
44169;SDS011;29836;52.286;9.576;2024-01-07T01:51:45;12.63;;;5.38;;
44169;SDS011;29836;52.286;9.576;2024-01-07T01:54:11;16.85;;;6.45;;
44169;SDS011;29836;52.286;9.576;2024-01-07T01:56:37;17.67;;;5.88;;
44169;SDS011;29836;52.286;9.576;2024-01-07T01:59:03;18.63;;;5.97;;
44169;SDS011;29836;52.286;9.576;2024-01-07T02:01:29;13.52;;;6.25;;
44169;SDS011;29836;52.286;9.576;2024-01-07T02:03:56;16.05;;;5.57;;
44169;SDS011;29836;52.286;9.576;2024-01-07T02:06:22;14.02;;;5.40;;
44169;SDS011;29836;52.286;9.576;2024-01-07T02:08:48;14.43;;;6.53;;
44169;SDS011;29836;52.286;9.576;2024-01-07T02:11:15;15.18;;;6.88;;
44169;SDS011;29836;52.286;9.576;2024-01-07T02:13:44;15.35;;;6.10;;
44169;SDS011;29836;52.286;9.576;2024-01-07T02:16:10;17.42;;;6.43;;
44169;SDS011;29836;52.286;9.576;2024-01-07T02:18:37;14.85;;;6.40;;
44169;SDS011;29836;52.286;9.576;2024-01-07T02:21:04;9.93;;;5.43;;
44169;SDS011;29836;52.286;9.576;2024-01-07T02:23:31;16.60;;;5.28;;
44169;SDS011;29836;52.286;9.576;2024-01-07T02:25:57;12.77;;;6.07;;
44169;SDS011;29836;52.286;9.576;2024-01-07T02:28:22;12.48;;;5.57;;
44169;SDS011;29836;52.286;9.576;2024-01-07T02:30:48;14.35;;;4.65;;
44169;SDS011;29836;52.286;9.576;2024-01-07T02:33:13;13.13;;;5.43;;
44169;SDS011;29836;52.286;9.576;2024-01-07T02:35:39;18.40;;;6.32;;
44169;SDS011;29836;52.286;9.576;2024-01-07T02:38:04;9.55;;;4.97;;
44169;SDS011;29836;52.286;9.576;2024-01-07T02:40:30;12.45;;;4.97;;
44169;SDS011;29836;52.286;9.576;2024-01-07T02:42:55;10.23;;;4.57;;
44169;SDS011;29836;52.286;9.576;2024-01-07T02:45:21;9.95;;;4.60;;
44169;SDS011;29836;52.286;9.576;2024-01-07T02:47:47;11.73;;;4.65;;
44169;SDS011;29836;52.286;9.576;2024-01-07T02:50:13;13.93;;;4.68;;
44169;SDS011;29836;52.286;9.576;2024-01-07T02:52:38;11.43;;;4.13;;
44169;SDS011;29836;52.286;9.576;2024-01-07T02:55:04;11.35;;;5.35;;
44169;SDS011;29836;52.286;9.576;2024-01-07T02:57:30;15.85;;;4.50;;
44169;SDS011;29836;52.286;9.576;2024-01-07T02:59:55;15.90;;;4.40;;
44169;SDS011;29836;52.286;9.576;2024-01-07T03:02:21;9.95;;;4.10;;
44169;SDS011;29836;52.286;9.576;2024-01-07T03:04:47;9.40;;;4.88;;
44169;SDS011;29836;52.286;9.576;2024-01-07T03:07:12;9.38;;;4.10;;
44169;SDS011;29836;52.286;9.576;2024-01-07T03:09:38;11.60;;;5.40;;
44169;SDS011;29836;52.286;9.576;2024-01-07T03:12:03;14.40;;;5.75;;
44169;SDS011;29836;52.286;9.576;2024-01-07T03:14:29;12.98;;;4.55;;
44169;SDS011;29836;52.286;9.576;2024-01-07T03:16:54;10.73;;;3.80;;
44169;SDS011;29836;52.286;9.576;2024-01-07T03:19:20;10.85;;;4.25;;
44169;SDS011;29836;52.286;9.576;2024-01-07T03:21:46;9.60;;;4.10;;
44169;SDS011;29836;52.286;9.576;2024-01-07T03:24:12;10.43;;;4.35;;
44169;SDS011;29836;52.286;9.576;2024-01-07T03:26:38;8.52;;;4.43;;
44169;SDS011;29836;52.286;9.576;2024-01-07T03:29:04;17.08;;;6.15;;
44169;SDS011;29836;52.286;9.576;2024-01-07T03:31:29;10.00;;;4.60;;
44169;SDS011;29836;52.286;9.576;2024-01-07T03:33:55;12.65;;;5.20;;
44169;SDS011;29836;52.286;9.576;2024-01-07T03:36:21;11.77;;;5.05;;
44169;SDS011;29836;52.286;9.576;2024-01-07T03:38:46;10.73;;;5.40;;
44169;SDS011;29836;52.286;9.576;2024-01-07T03:41:15;9.77;;;4.38;;
44169;SDS011;29836;52.286;9.576;2024-01-07T03:43:43;6.43;;;4.00;;
44169;SDS011;29836;52.286;9.576;2024-01-07T03:46:08;9.32;;;4.72;;
44169;SDS011;29836;52.286;9.576;2024-01-07T03:48:34;9.18;;;4.40;;
44169;SDS011;29836;52.286;9.576;2024-01-07T03:50:59;9.50;;;3.42;;
44169;SDS011;29836;52.286;9.576;2024-01-07T03:53:25;5.43;;;3.88;;
44169;SDS011;29836;52.286;9.576;2024-01-07T03:55:50;7.25;;;3.60;;
44169;SDS011;29836;52.286;9.576;2024-01-07T03:58:16;7.90;;;3.72;;
44169;SDS011;29836;52.286;9.576;2024-01-07T04:00:41;9.00;;;4.05;;
44169;SDS011;29836;52.286;9.576;2024-01-07T04:03:07;8.70;;;4.82;;
44169;SDS011;29836;52.286;9.576;2024-01-07T04:05:32;9.77;;;4.20;;
44169;SDS011;29836;52.286;9.576;2024-01-07T04:07:59;9.13;;;3.83;;
44169;SDS011;29836;52.286;9.576;2024-01-07T04:10:27;8.38;;;4.03;;
44169;SDS011;29836;52.286;9.576;2024-01-07T04:12:53;7.20;;;3.20;;
44169;SDS011;29836;52.286;9.576;2024-01-07T04:15:18;8.23;;;3.15;;
44169;SDS011;29836;52.286;9.576;2024-01-07T04:17:45;8.75;;;3.83;;
44169;SDS011;29836;52.286;9.576;2024-01-07T04:20:12;8.02;;;3.85;;
44169;SDS011;29836;52.286;9.576;2024-01-07T04:22:38;10.13;;;3.45;;
44169;SDS011;29836;52.286;9.576;2024-01-07T04:25:04;18.02;;;5.18;;
44169;SDS011;29836;52.286;9.576;2024-01-07T04:27:33;8.20;;;3.88;;
44169;SDS011;29836;52.286;9.576;2024-01-07T04:30:00;7.22;;;3.78;;
44169;SDS011;29836;52.286;9.576;2024-01-07T04:32:26;5.68;;;3.08;;
44169;SDS011;29836;52.286;9.576;2024-01-07T04:34:51;8.23;;;3.65;;
44169;SDS011;29836;52.286;9.576;2024-01-07T04:37:17;6.43;;;2.75;;
44169;SDS011;29836;52.286;9.576;2024-01-07T04:39:42;8.18;;;3.33;;
44169;SDS011;29836;52.286;9.576;2024-01-07T04:42:08;11.95;;;3.75;;
44169;SDS011;29836;52.286;9.576;2024-01-07T04:44:34;8.98;;;3.45;;
44169;SDS011;29836;52.286;9.576;2024-01-07T04:46:59;3.85;;;2.47;;
44169;SDS011;29836;52.286;9.576;2024-01-07T04:49:25;6.75;;;2.65;;
44169;SDS011;29836;52.286;9.576;2024-01-07T04:51:51;9.48;;;3.90;;
44169;SDS011;29836;52.286;9.576;2024-01-07T04:54:16;6.00;;;3.05;;
44169;SDS011;29836;52.286;9.576;2024-01-07T04:56:43;7.75;;;3.13;;
44169;SDS011;29836;52.286;9.576;2024-01-07T04:59:09;7.47;;;3.10;;
44169;SDS011;29836;52.286;9.576;2024-01-07T05:01:34;7.88;;;2.42;;
44169;SDS011;29836;52.286;9.576;2024-01-07T05:04:00;5.90;;;2.75;;
44169;SDS011;29836;52.286;9.576;2024-01-07T05:06:29;5.03;;;2.40;;
44169;SDS011;29836;52.286;9.576;2024-01-07T05:08:54;6.88;;;3.72;;
44169;SDS011;29836;52.286;9.576;2024-01-07T05:11:20;5.85;;;2.22;;
44169;SDS011;29836;52.286;9.576;2024-01-07T05:13:45;5.35;;;2.53;;
44169;SDS011;29836;52.286;9.576;2024-01-07T05:16:20;5.00;;;2.17;;
44169;SDS011;29836;52.286;9.576;2024-01-07T05:18:46;5.15;;;1.92;;
44169;SDS011;29836;52.286;9.576;2024-01-07T05:21:13;7.65;;;2.70;;
44169;SDS011;29836;52.286;9.576;2024-01-07T05:23:48;2.65;;;1.40;;
44169;SDS011;29836;52.286;9.576;2024-01-07T05:26:13;3.97;;;1.63;;
44169;SDS011;29836;52.286;9.576;2024-01-07T05:28:39;5.65;;;2.05;;
44169;SDS011;29836;52.286;9.576;2024-01-07T05:31:04;4.47;;;2.13;;
44169;SDS011;29836;52.286;9.576;2024-01-07T05:33:30;4.20;;;1.95;;
44169;SDS011;29836;52.286;9.576;2024-01-07T05:35:55;3.15;;;1.48;;
44169;SDS011;29836;52.286;9.576;2024-01-07T05:38:21;5.22;;;2.20;;
44169;SDS011;29836;52.286;9.576;2024-01-07T05:40:46;6.75;;;2.38;;
44169;SDS011;29836;52.286;9.576;2024-01-07T05:43:12;5.03;;;1.98;;
44169;SDS011;29836;52.286;9.576;2024-01-07T05:45:37;4.78;;;2.35;;
44169;SDS011;29836;52.286;9.576;2024-01-07T05:48:03;4.72;;;1.83;;
44169;SDS011;29836;52.286;9.576;2024-01-07T05:50:29;4.03;;;1.65;;
44169;SDS011;29836;52.286;9.576;2024-01-07T05:52:54;4.05;;;1.92;;
44169;SDS011;29836;52.286;9.576;2024-01-07T05:55:20;3.53;;;1.52;;
44169;SDS011;29836;52.286;9.576;2024-01-07T05:57:45;7.13;;;2.72;;
44169;SDS011;29836;52.286;9.576;2024-01-07T06:00:11;4.78;;;2.80;;
44169;SDS011;29836;52.286;9.576;2024-01-07T06:02:38;4.88;;;2.08;;
44169;SDS011;29836;52.286;9.576;2024-01-07T06:05:03;4.88;;;2.00;;
44169;SDS011;29836;52.286;9.576;2024-01-07T06:07:29;4.35;;;1.88;;
44169;SDS011;29836;52.286;9.576;2024-01-07T06:09:55;4.00;;;2.28;;
44169;SDS011;29836;52.286;9.576;2024-01-07T06:12:20;2.33;;;1.63;;
44169;SDS011;29836;52.286;9.576;2024-01-07T06:14:46;6.50;;;2.08;;
44169;SDS011;29836;52.286;9.576;2024-01-07T06:17:11;4.72;;;2.05;;
44169;SDS011;29836;52.286;9.576;2024-01-07T06:19:37;5.03;;;2.03;;
44169;SDS011;29836;52.286;9.576;2024-01-07T06:22:03;4.43;;;1.85;;
44169;SDS011;29836;52.286;9.576;2024-01-07T06:24:28;3.30;;;2.17;;
44169;SDS011;29836;52.286;9.576;2024-01-07T06:26:54;2.63;;;1.95;;
44169;SDS011;29836;52.286;9.576;2024-01-07T06:29:19;3.05;;;1.98;;
44169;SDS011;29836;52.286;9.576;2024-01-07T06:31:45;3.75;;;1.67;;
44169;SDS011;29836;52.286;9.576;2024-01-07T06:34:11;6.47;;;2.25;;
44169;SDS011;29836;52.286;9.576;2024-01-07T06:36:38;7.18;;;1.80;;
44169;SDS011;29836;52.286;9.576;2024-01-07T06:39:06;3.00;;;1.85;;
44169;SDS011;29836;52.286;9.576;2024-01-07T06:41:32;4.13;;;1.83;;
44169;SDS011;29836;52.286;9.576;2024-01-07T06:43:58;4.22;;;2.05;;
44169;SDS011;29836;52.286;9.576;2024-01-07T06:46:24;3.58;;;1.73;;
44169;SDS011;29836;52.286;9.576;2024-01-07T06:48:49;4.30;;;1.92;;
44169;SDS011;29836;52.286;9.576;2024-01-07T06:51:15;2.55;;;1.48;;
44169;SDS011;29836;52.286;9.576;2024-01-07T06:53:40;4.20;;;1.55;;
44169;SDS011;29836;52.286;9.576;2024-01-07T06:56:06;4.28;;;2.10;;
44169;SDS011;29836;52.286;9.576;2024-01-07T06:58:31;3.63;;;1.77;;
44169;SDS011;29836;52.286;9.576;2024-01-07T07:00:57;4.68;;;2.42;;
44169;SDS011;29836;52.286;9.576;2024-01-07T07:03:23;4.28;;;1.70;;
44169;SDS011;29836;52.286;9.576;2024-01-07T07:05:48;3.63;;;1.85;;
44169;SDS011;29836;52.286;9.576;2024-01-07T07:08:14;4.80;;;1.92;;
44169;SDS011;29836;52.286;9.576;2024-01-07T07:10:40;2.85;;;1.48;;
44169;SDS011;29836;52.286;9.576;2024-01-07T07:13:05;6.03;;;2.00;;
44169;SDS011;29836;52.286;9.576;2024-01-07T07:15:31;3.00;;;1.80;;
44169;SDS011;29836;52.286;9.576;2024-01-07T07:17:56;3.20;;;1.33;;
44169;SDS011;29836;52.286;9.576;2024-01-07T07:20:22;5.20;;;1.77;;
44169;SDS011;29836;52.286;9.576;2024-01-07T07:22:47;3.90;;;1.75;;
44169;SDS011;29836;52.286;9.576;2024-01-07T07:25:13;6.10;;;1.85;;
44169;SDS011;29836;52.286;9.576;2024-01-07T07:27:39;4.40;;;2.17;;
44169;SDS011;29836;52.286;9.576;2024-01-07T07:30:05;2.70;;;1.63;;
44169;SDS011;29836;52.286;9.576;2024-01-07T07:32:31;5.13;;;1.77;;
44169;SDS011;29836;52.286;9.576;2024-01-07T07:34:56;5.00;;;1.40;;
44169;SDS011;29836;52.286;9.576;2024-01-07T07:37:22;3.30;;;1.90;;
44169;SDS011;29836;52.286;9.576;2024-01-07T07:39:48;3.97;;;2.17;;
44169;SDS011;29836;52.286;9.576;2024-01-07T07:42:14;2.50;;;1.15;;
44169;SDS011;29836;52.286;9.576;2024-01-07T07:44:40;3.55;;;1.60;;
44169;SDS011;29836;52.286;9.576;2024-01-07T07:47:05;4.15;;;1.63;;
44169;SDS011;29836;52.286;9.576;2024-01-07T07:49:32;4.15;;;2.35;;
44169;SDS011;29836;52.286;9.576;2024-01-07T07:51:58;5.03;;;2.25;;
44169;SDS011;29836;52.286;9.576;2024-01-07T07:54:24;7.90;;;2.20;;
44169;SDS011;29836;52.286;9.576;2024-01-07T07:56:49;3.75;;;1.77;;
44169;SDS011;29836;52.286;9.576;2024-01-07T07:59:15;4.10;;;2.17;;
44169;SDS011;29836;52.286;9.576;2024-01-07T08:01:40;3.65;;;1.50;;
44169;SDS011;29836;52.286;9.576;2024-01-07T08:04:06;6.60;;;2.50;;
44169;SDS011;29836;52.286;9.576;2024-01-07T08:06:32;6.32;;;1.92;;
44169;SDS011;29836;52.286;9.576;2024-01-07T08:08:58;3.03;;;2.15;;
44169;SDS011;29836;52.286;9.576;2024-01-07T08:11:23;3.00;;;1.55;;
44169;SDS011;29836;52.286;9.576;2024-01-07T08:13:49;8.30;;;2.65;;
44169;SDS011;29836;52.286;9.576;2024-01-07T08:16:15;4.13;;;2.33;;
44169;SDS011;29836;52.286;9.576;2024-01-07T08:18:41;2.90;;;1.45;;
44169;SDS011;29836;52.286;9.576;2024-01-07T08:21:06;4.60;;;1.65;;
44169;SDS011;29836;52.286;9.576;2024-01-07T08:23:32;4.75;;;1.85;;
44169;SDS011;29836;52.286;9.576;2024-01-07T08:25:57;4.28;;;1.92;;
44169;SDS011;29836;52.286;9.576;2024-01-07T08:28:23;4.30;;;2.08;;
44169;SDS011;29836;52.286;9.576;2024-01-07T08:30:48;4.45;;;1.98;;
44169;SDS011;29836;52.286;9.576;2024-01-07T08:33:16;3.88;;;1.88;;
44169;SDS011;29836;52.286;9.576;2024-01-07T08:35:42;3.20;;;1.85;;
44169;SDS011;29836;52.286;9.576;2024-01-07T08:38:07;7.28;;;2.03;;
44169;SDS011;29836;52.286;9.576;2024-01-07T08:40:33;3.35;;;1.90;;
44169;SDS011;29836;52.286;9.576;2024-01-07T08:42:59;4.20;;;1.98;;
44169;SDS011;29836;52.286;9.576;2024-01-07T08:45:24;4.07;;;1.67;;
44169;SDS011;29836;52.286;9.576;2024-01-07T08:47:50;4.95;;;1.60;;
44169;SDS011;29836;52.286;9.576;2024-01-07T08:50:15;3.40;;;1.80;;
44169;SDS011;29836;52.286;9.576;2024-01-07T08:52:41;4.40;;;2.22;;
44169;SDS011;29836;52.286;9.576;2024-01-07T08:55:07;6.50;;;2.53;;
44169;SDS011;29836;52.286;9.576;2024-01-07T08:57:34;4.20;;;2.15;;
44169;SDS011;29836;52.286;9.576;2024-01-07T09:00:01;5.10;;;2.42;;
44169;SDS011;29836;52.286;9.576;2024-01-07T09:02:27;3.55;;;2.33;;
44169;SDS011;29836;52.286;9.576;2024-01-07T09:04:52;5.45;;;2.47;;
44169;SDS011;29836;52.286;9.576;2024-01-07T09:07:18;3.17;;;2.03;;
44169;SDS011;29836;52.286;9.576;2024-01-07T09:09:44;5.38;;;1.85;;
44169;SDS011;29836;52.286;9.576;2024-01-07T09:12:09;3.60;;;1.90;;
44169;SDS011;29836;52.286;9.576;2024-01-07T09:14:36;3.65;;;1.90;;
44169;SDS011;29836;52.286;9.576;2024-01-07T09:17:03;5.75;;;1.90;;
44169;SDS011;29836;52.286;9.576;2024-01-07T09:19:28;5.22;;;2.33;;
44169;SDS011;29836;52.286;9.576;2024-01-07T09:21:54;5.13;;;2.22;;
44169;SDS011;29836;52.286;9.576;2024-01-07T09:24:20;5.85;;;1.98;;
44169;SDS011;29836;52.286;9.576;2024-01-07T09:26:45;4.60;;;2.10;;
44169;SDS011;29836;52.286;9.576;2024-01-07T09:29:11;4.13;;;2.03;;
44169;SDS011;29836;52.286;9.576;2024-01-07T09:31:37;4.38;;;1.63;;
44169;SDS011;29836;52.286;9.576;2024-01-07T09:34:02;3.60;;;1.90;;
44169;SDS011;29836;52.286;9.576;2024-01-07T09:36:29;6.55;;;1.90;;
44169;SDS011;29836;52.286;9.576;2024-01-07T09:38:54;2.78;;;1.50;;
44169;SDS011;29836;52.286;9.576;2024-01-07T09:41:20;5.05;;;1.90;;
44169;SDS011;29836;52.286;9.576;2024-01-07T09:43:45;7.82;;;1.98;;
44169;SDS011;29836;52.286;9.576;2024-01-07T09:46:11;3.03;;;1.73;;
44169;SDS011;29836;52.286;9.576;2024-01-07T09:48:39;3.42;;;1.95;;
44169;SDS011;29836;52.286;9.576;2024-01-07T09:51:04;3.88;;;1.73;;
44169;SDS011;29836;52.286;9.576;2024-01-07T09:53:33;5.38;;;2.22;;
44169;SDS011;29836;52.286;9.576;2024-01-07T09:58:41;3.55;;;1.55;;
44169;SDS011;29836;52.286;9.576;2024-01-07T10:01:08;3.08;;;1.55;;
44169;SDS011;29836;52.286;9.576;2024-01-07T10:03:33;4.38;;;1.73;;
44169;SDS011;29836;52.286;9.576;2024-01-07T10:05:59;4.38;;;1.95;;
44169;SDS011;29836;52.286;9.576;2024-01-07T10:08:25;3.00;;;1.73;;
44169;SDS011;29836;52.286;9.576;2024-01-07T10:10:50;5.03;;;2.30;;
44169;SDS011;29836;52.286;9.576;2024-01-07T10:13:16;3.08;;;1.63;;
44169;SDS011;29836;52.286;9.576;2024-01-07T10:15:41;3.53;;;1.90;;
44169;SDS011;29836;52.286;9.576;2024-01-07T10:18:07;5.03;;;2.15;;
44169;SDS011;29836;52.286;9.576;2024-01-07T10:20:33;5.00;;;2.00;;
44169;SDS011;29836;52.286;9.576;2024-01-07T10:23:00;4.57;;;2.00;;
44169;SDS011;29836;52.286;9.576;2024-01-07T10:25:26;2.60;;;1.50;;
44169;SDS011;29836;52.286;9.576;2024-01-07T10:27:52;3.65;;;1.55;;
44169;SDS011;29836;52.286;9.576;2024-01-07T10:30:18;3.47;;;1.27;;
44169;SDS011;29836;52.286;9.576;2024-01-07T10:32:44;3.53;;;2.00;;
44169;SDS011;29836;52.286;9.576;2024-01-07T10:35:12;4.68;;;1.83;;
44169;SDS011;29836;52.286;9.576;2024-01-07T10:37:39;4.82;;;2.25;;
44169;SDS011;29836;52.286;9.576;2024-01-07T10:40:06;6.03;;;1.90;;
44169;SDS011;29836;52.286;9.576;2024-01-07T10:42:33;4.15;;;1.63;;
44169;SDS011;29836;52.286;9.576;2024-01-07T10:44:59;5.72;;;2.00;;
44169;SDS011;29836;52.286;9.576;2024-01-07T10:47:27;2.85;;;1.80;;
44169;SDS011;29836;52.286;9.576;2024-01-07T10:49:56;3.75;;;1.50;;
44169;SDS011;29836;52.286;9.576;2024-01-07T10:52:23;3.47;;;2.05;;
44169;SDS011;29836;52.286;9.576;2024-01-07T10:54:51;4.93;;;1.63;;
44169;SDS011;29836;52.286;9.576;2024-01-07T10:57:21;2.97;;;1.27;;
44169;SDS011;29836;52.286;9.576;2024-01-07T10:59:57;3.55;;;1.55;;
44169;SDS011;29836;52.286;9.576;2024-01-07T11:02:25;3.08;;;1.50;;
44169;SDS011;29836;52.286;9.576;2024-01-07T11:04:54;4.90;;;1.90;;
44169;SDS011;29836;52.286;9.576;2024-01-07T11:07:31;3.85;;;1.70;;
44169;SDS011;29836;52.286;9.576;2024-01-07T11:10:06;4.75;;;1.77;;
44169;SDS011;29836;52.286;9.576;2024-01-07T11:12:54;3.40;;;1.95;;
44169;SDS011;29836;52.286;9.576;2024-01-07T11:18:19;3.83;;;1.63;;
44169;SDS011;29836;52.286;9.576;2024-01-07T11:20:46;2.75;;;1.58;;
44169;SDS011;29836;52.286;9.576;2024-01-07T11:26:01;5.97;;;1.98;;
44169;SDS011;29836;52.286;9.576;2024-01-07T11:34:05;3.97;;;1.80;;
44169;SDS011;29836;52.286;9.576;2024-01-07T11:36:31;5.93;;;1.55;;
44169;SDS011;29836;52.286;9.576;2024-01-07T11:39:01;4.38;;;2.10;;
44169;SDS011;29836;52.286;9.576;2024-01-07T11:41:28;3.20;;;2.05;;
44169;SDS011;29836;52.286;9.576;2024-01-07T11:44:00;3.97;;;2.05;;
44169;SDS011;29836;52.286;9.576;2024-01-07T11:46:27;2.78;;;1.70;;
44169;SDS011;29836;52.286;9.576;2024-01-07T11:48:54;4.53;;;2.33;;
44169;SDS011;29836;52.286;9.576;2024-01-07T11:51:27;2.40;;;1.48;;
44169;SDS011;29836;52.286;9.576;2024-01-07T11:53:53;2.45;;;1.50;;
44169;SDS011;29836;52.286;9.576;2024-01-07T11:56:19;3.42;;;1.60;;
44169;SDS011;29836;52.286;9.576;2024-01-07T11:58:44;3.38;;;1.73;;
44169;SDS011;29836;52.286;9.576;2024-01-07T12:01:10;3.30;;;1.67;;
44169;SDS011;29836;52.286;9.576;2024-01-07T12:03:36;3.05;;;1.40;;
44169;SDS011;29836;52.286;9.576;2024-01-07T12:06:02;3.90;;;1.75;;
44169;SDS011;29836;52.286;9.576;2024-01-07T12:08:29;6.15;;;1.90;;
44169;SDS011;29836;52.286;9.576;2024-01-07T12:10:55;7.03;;;2.00;;
44169;SDS011;29836;52.286;9.576;2024-01-07T12:13:21;3.00;;;1.85;;
44169;SDS011;29836;52.286;9.576;2024-01-07T12:15:47;4.60;;;1.58;;
44169;SDS011;29836;52.286;9.576;2024-01-07T12:18:13;5.35;;;1.88;;
44169;SDS011;29836;52.286;9.576;2024-01-07T12:20:39;3.03;;;1.90;;
44169;SDS011;29836;52.286;9.576;2024-01-07T12:23:08;5.63;;;1.80;;
44169;SDS011;29836;52.286;9.576;2024-01-07T12:25:35;2.78;;;1.45;;
44169;SDS011;29836;52.286;9.576;2024-01-07T12:28:01;5.47;;;2.22;;
44169;SDS011;29836;52.286;9.576;2024-01-07T12:30:27;4.05;;;1.75;;
44169;SDS011;29836;52.286;9.576;2024-01-07T12:32:53;3.08;;;1.20;;
44169;SDS011;29836;52.286;9.576;2024-01-07T12:35:20;2.85;;;1.75;;
44169;SDS011;29836;52.286;9.576;2024-01-07T12:37:47;2.88;;;1.73;;
44169;SDS011;29836;52.286;9.576;2024-01-07T12:40:13;3.90;;;1.77;;
44169;SDS011;29836;52.286;9.576;2024-01-07T12:42:39;2.78;;;1.85;;
44169;SDS011;29836;52.286;9.576;2024-01-07T12:45:09;3.13;;;1.40;;
44169;SDS011;29836;52.286;9.576;2024-01-07T12:47:36;6.03;;;1.60;;
44169;SDS011;29836;52.286;9.576;2024-01-07T12:50:02;8.07;;;1.83;;
44169;SDS011;29836;52.286;9.576;2024-01-07T12:52:27;3.90;;;1.70;;
44169;SDS011;29836;52.286;9.576;2024-01-07T12:54:53;3.35;;;1.90;;
44169;SDS011;29836;52.286;9.576;2024-01-07T12:57:20;2.97;;;1.60;;
44169;SDS011;29836;52.286;9.576;2024-01-07T12:59:47;3.88;;;1.67;;
44169;SDS011;29836;52.286;9.576;2024-01-07T13:02:13;4.93;;;2.00;;
44169;SDS011;29836;52.286;9.576;2024-01-07T13:04:39;3.92;;;1.45;;
44169;SDS011;29836;52.286;9.576;2024-01-07T13:07:04;4.53;;;1.60;;
44169;SDS011;29836;52.286;9.576;2024-01-07T13:09:30;3.63;;;2.13;;
44169;SDS011;29836;52.286;9.576;2024-01-07T13:11:56;3.92;;;1.98;;
44169;SDS011;29836;52.286;9.576;2024-01-07T13:14:22;6.28;;;1.80;;
44169;SDS011;29836;52.286;9.576;2024-01-07T13:16:49;3.15;;;1.85;;
44169;SDS011;29836;52.286;9.576;2024-01-07T13:19:14;5.95;;;2.13;;
44169;SDS011;29836;52.286;9.576;2024-01-07T13:21:40;3.90;;;1.63;;
44169;SDS011;29836;52.286;9.576;2024-01-07T13:24:05;2.65;;;1.60;;
44169;SDS011;29836;52.286;9.576;2024-01-07T13:26:31;4.32;;;1.92;;
44169;SDS011;29836;52.286;9.576;2024-01-07T13:28:57;4.28;;;1.65;;
44169;SDS011;29836;52.286;9.576;2024-01-07T13:31:22;4.32;;;1.70;;
44169;SDS011;29836;52.286;9.576;2024-01-07T13:33:48;2.60;;;1.20;;
44169;SDS011;29836;52.286;9.576;2024-01-07T13:36:14;3.97;;;1.50;;
44169;SDS011;29836;52.286;9.576;2024-01-07T13:38:41;3.80;;;1.98;;
44169;SDS011;29836;52.286;9.576;2024-01-07T13:41:07;3.55;;;1.52;;
44169;SDS011;29836;52.286;9.576;2024-01-07T13:43:34;4.72;;;1.90;;
44169;SDS011;29836;52.286;9.576;2024-01-07T13:45:59;3.60;;;1.85;;
44169;SDS011;29836;52.286;9.576;2024-01-07T13:48:27;4.63;;;2.17;;
44169;SDS011;29836;52.286;9.576;2024-01-07T13:50:52;7.47;;;1.92;;
44169;SDS011;29836;52.286;9.576;2024-01-07T13:53:19;3.63;;;1.70;;
44169;SDS011;29836;52.286;9.576;2024-01-07T13:55:45;2.65;;;1.42;;
44169;SDS011;29836;52.286;9.576;2024-01-07T13:58:11;3.67;;;1.10;;
44169;SDS011;29836;52.286;9.576;2024-01-07T14:00:37;2.85;;;1.58;;
44169;SDS011;29836;52.286;9.576;2024-01-07T14:03:03;4.25;;;1.88;;
44169;SDS011;29836;52.286;9.576;2024-01-07T14:05:29;3.00;;;1.48;;
44169;SDS011;29836;52.286;9.576;2024-01-07T14:07:55;5.05;;;2.15;;
44169;SDS011;29836;52.286;9.576;2024-01-07T14:10:21;4.82;;;1.63;;
44169;SDS011;29836;52.286;9.576;2024-01-07T14:12:47;2.95;;;1.27;;
44169;SDS011;29836;52.286;9.576;2024-01-07T14:15:12;2.65;;;1.25;;
44169;SDS011;29836;52.286;9.576;2024-01-07T14:17:38;2.05;;;1.10;;
44169;SDS011;29836;52.286;9.576;2024-01-07T14:20:05;3.10;;;1.60;;
44169;SDS011;29836;52.286;9.576;2024-01-07T14:22:33;3.85;;;1.90;;
44169;SDS011;29836;52.286;9.576;2024-01-07T14:24:59;2.83;;;1.60;;
44169;SDS011;29836;52.286;9.576;2024-01-07T14:27:25;3.67;;;1.88;;
44169;SDS011;29836;52.286;9.576;2024-01-07T14:29:52;4.75;;;2.17;;
44169;SDS011;29836;52.286;9.576;2024-01-07T14:32:19;5.60;;;1.45;;
44169;SDS011;29836;52.286;9.576;2024-01-07T14:34:44;3.45;;;1.60;;
44169;SDS011;29836;52.286;9.576;2024-01-07T14:37:10;8.63;;;1.65;;
44169;SDS011;29836;52.286;9.576;2024-01-07T14:39:36;4.75;;;1.65;;
44169;SDS011;29836;52.286;9.576;2024-01-07T14:42:02;4.68;;;1.67;;
44169;SDS011;29836;52.286;9.576;2024-01-07T14:44:28;5.30;;;1.30;;
44169;SDS011;29836;52.286;9.576;2024-01-07T14:46:54;3.05;;;1.40;;
44169;SDS011;29836;52.286;9.576;2024-01-07T14:49:20;3.08;;;1.60;;
44169;SDS011;29836;52.286;9.576;2024-01-07T14:51:45;4.55;;;1.70;;